createdAt,value
2018-02-08T15:39:06.067Z,31.18
2018-02-08T15:40:06.065Z,31.10
2018-02-08T15:41:06.295Z,30.73
2018-02-08T15:42:06.090Z,30.24
2018-02-08T15:43:06.026Z,30.05
2018-02-08T15:44:06.071Z,29.76
2018-02-08T15:45:06.029Z,29.47
2018-02-08T15:46:06.092Z,29.85
2018-02-08T15:47:06.009Z,29.57
2018-02-08T15:48:05.984Z,29.37
2018-02-08T15:49:05.987Z,28.98
2018-02-08T15:50:05.975Z,29.00
2018-02-08T15:51:05.963Z,29.19
2018-02-08T15:52:05.956Z,29.27
2018-02-08T15:53:05.945Z,29.08
2018-02-08T15:54:05.938Z,29.17
2018-02-08T15:55:05.934Z,29.36
2018-02-08T15:56:06.176Z,29.16
2018-02-08T15:57:05.913Z,29.06
2018-02-08T15:58:05.906Z,29.16
2018-02-08T15:59:05.897Z,28.96
2018-02-08T16:00:05.887Z,29.15
2018-02-08T16:01:05.882Z,29.15
2018-02-08T16:02:05.876Z,28.96
2018-02-08T16:03:05.870Z,28.96
2018-02-08T16:04:05.871Z,29.05
2018-02-08T16:05:05.857Z,29.15
2018-02-08T16:06:06.097Z,29.34
2018-02-08T16:07:05.843Z,29.23
2018-02-08T16:08:05.836Z,29.33
2018-02-08T16:09:05.824Z,29.33
2018-02-08T16:10:05.818Z,29.43
2018-02-08T16:11:06.071Z,29.23
2018-02-08T16:12:05.810Z,29.23
2018-02-08T16:13:05.799Z,29.43
2018-02-08T16:14:05.794Z,29.43
2018-02-08T16:15:05.805Z,29.23
2018-02-08T16:16:05.787Z,29.33
2018-02-08T16:17:05.824Z,29.43
2018-02-08T16:18:05.778Z,29.52
2018-02-08T16:19:05.793Z,29.23
2018-02-08T16:20:05.765Z,29.63
2018-02-08T16:21:05.845Z,29.44
2018-02-08T16:22:05.746Z,29.34
2018-02-08T16:23:05.836Z,29.53
2018-02-08T16:24:05.731Z,29.63
2018-02-08T16:25:05.788Z,29.73
2018-02-08T16:26:05.716Z,29.73
2018-02-08T16:27:05.961Z,29.83
2018-02-08T16:28:05.706Z,29.63
2018-02-08T16:29:05.706Z,29.63
2018-02-08T16:30:05.695Z,29.44
2018-02-08T16:31:05.687Z,29.34
2018-02-08T16:32:05.685Z,29.44
2018-02-08T16:33:05.930Z,29.24
2018-02-08T16:34:05.676Z,29.26
2018-02-08T16:35:05.664Z,29.16
2018-02-08T16:36:05.661Z,29.06
2018-02-08T16:37:05.654Z,28.97
2018-02-08T16:38:05.650Z,28.87
2018-02-08T16:39:05.649Z,28.59
2018-02-08T16:40:05.644Z,28.68
2018-02-08T16:41:05.621Z,28.87
2018-02-08T16:42:05.617Z,28.97
2018-02-08T16:43:05.608Z,28.87
2018-02-08T16:44:05.601Z,29.15
2018-02-08T16:45:27.086Z,29.73
2018-02-08T16:46:27.069Z,29.74
2018-02-08T16:47:27.058Z,29.36
2018-02-08T16:48:27.345Z,29.26
2018-02-08T16:49:27.439Z,29.16
2018-02-08T16:50:27.036Z,29.06
2018-02-08T16:51:27.019Z,29.05
2018-02-08T16:52:27.060Z,28.86
2018-02-08T16:53:27.008Z,28.86
2018-02-08T16:54:27.255Z,29.05
2018-02-08T16:55:26.985Z,28.66
2018-02-08T16:56:26.982Z,28.56
2018-02-08T16:57:26.973Z,28.56
2018-02-08T16:58:26.965Z,28.56
2018-02-08T16:59:27.210Z,28.56
2018-02-08T17:00:26.955Z,28.47
2018-02-08T17:01:26.950Z,28.47
2018-02-08T17:02:26.950Z,28.66
2018-02-08T17:03:26.944Z,28.76
2018-02-08T17:04:27.177Z,28.66
2018-02-08T17:05:26.940Z,28.56
2018-02-08T17:06:26.917Z,28.66
2018-02-08T17:07:26.905Z,28.66
2018-02-08T17:08:26.906Z,28.47
2018-02-08T17:09:27.146Z,28.66
2018-02-08T17:10:26.889Z,28.76
2018-02-08T17:11:26.882Z,28.66
2018-02-08T17:12:26.877Z,28.38
2018-02-08T17:13:26.870Z,28.38
2018-02-08T17:14:27.123Z,28.36
2018-02-08T17:15:26.863Z,28.47
2018-02-08T17:16:26.868Z,28.38
2018-02-08T17:17:26.846Z,28.47
2018-02-08T17:18:26.840Z,28.56
2018-02-08T17:19:26.832Z,28.45
2018-02-08T17:20:26.833Z,28.45
2018-02-08T17:21:26.844Z,28.45
2018-02-08T17:22:26.827Z,28.55
2018-02-08T17:23:26.810Z,28.55
2018-02-08T17:24:26.808Z,28.26
2018-02-08T17:25:26.803Z,28.26
2018-02-08T17:26:26.795Z,28.45
2018-02-08T17:27:26.785Z,28.36
2018-02-08T17:28:26.780Z,28.36
2018-02-08T17:29:26.779Z,28.17
2018-02-08T17:30:26.773Z,28.17
2018-02-08T17:31:26.762Z,28.36
2018-02-08T17:32:26.761Z,28.36
2018-02-08T17:33:26.755Z,28.45
2018-02-08T17:34:26.746Z,28.26
2018-02-08T17:35:26.759Z,28.36
2018-02-08T17:36:26.741Z,28.26
2018-02-08T17:37:26.731Z,28.36
2018-02-08T17:38:26.724Z,28.36
2018-02-08T17:39:26.715Z,28.26
2018-02-08T17:40:26.959Z,28.26
2018-02-08T17:41:26.701Z,28.26
2018-02-08T17:42:26.698Z,28.17
2018-02-08T17:43:26.698Z,28.26
2018-02-08T17:44:26.686Z,28.45
2018-02-08T17:45:26.689Z,28.26
2018-02-08T17:46:26.675Z,28.55
2018-02-08T17:47:26.714Z,28.55
2018-02-08T17:48:26.665Z,28.45
2018-02-08T17:49:26.656Z,28.45
2018-02-08T17:50:26.655Z,28.36
2018-02-08T17:51:26.907Z,28.36
2018-02-08T17:52:26.640Z,28.34
2018-02-08T17:53:26.674Z,28.65
2018-02-08T17:54:26.624Z,28.55
2018-02-08T17:55:26.622Z,28.65
2018-02-08T17:56:26.616Z,28.55
2018-02-08T17:57:26.610Z,28.73
2018-02-08T17:58:26.612Z,28.64
2018-02-08T17:59:26.620Z,28.64
2018-02-08T18:00:26.849Z,28.54
2018-02-08T18:01:26.594Z,28.54
2018-02-08T18:02:26.579Z,28.55
2018-02-08T18:03:26.584Z,28.85
2018-02-08T18:04:26.569Z,28.54
2018-02-08T18:05:26.568Z,29.02
2018-02-08T18:06:26.561Z,29.02
2018-02-08T18:07:26.809Z,28.73
2018-02-08T18:08:26.557Z,28.83
2018-02-08T18:09:26.545Z,28.83
2018-02-08T18:10:26.531Z,28.83
2018-02-08T18:11:26.532Z,28.54
2018-02-08T18:12:26.566Z,28.54
2018-02-08T18:13:26.521Z,28.54
2018-02-08T18:14:26.510Z,28.64
2018-02-08T18:15:26.502Z,28.73
2018-02-08T18:16:26.493Z,28.64
2018-02-08T18:17:26.488Z,28.64
2018-02-08T18:18:26.486Z,28.73
2018-02-08T18:19:26.476Z,28.64
2018-02-08T18:20:26.472Z,28.34
2018-02-08T18:21:26.461Z,28.34
2018-02-08T18:22:26.463Z,28.15
2018-02-08T18:23:26.704Z,28.44
2018-02-08T18:24:26.448Z,28.25
2018-02-08T18:25:26.441Z,28.54
2018-02-08T18:26:26.436Z,28.44
2018-02-08T18:27:26.429Z,28.44
2018-02-08T18:28:26.421Z,28.44
2018-02-08T18:29:26.425Z,28.34
2018-02-08T18:30:26.416Z,28.54
2018-02-08T18:31:26.405Z,28.44
2018-02-08T18:32:26.401Z,28.54
2018-02-08T18:33:26.656Z,28.54
2018-02-08T18:34:26.385Z,28.54
2018-02-08T18:35:26.387Z,28.44
2018-02-08T18:36:26.374Z,28.44
2018-02-08T18:37:26.529Z,28.54
2018-02-08T18:38:26.616Z,28.54
2018-02-08T18:39:26.359Z,28.44
2018-02-08T18:40:26.351Z,28.44
2018-02-08T18:41:26.352Z,28.44
2018-02-08T18:42:26.341Z,28.54
2018-02-08T18:43:26.334Z,28.44
2018-02-08T18:44:26.330Z,28.54
2018-02-08T18:45:26.332Z,28.54
2018-02-08T18:46:26.315Z,28.44
2018-02-08T18:47:26.308Z,28.34
2018-02-08T18:48:26.615Z,28.44
2018-02-08T18:49:26.300Z,28.34
2018-02-08T18:50:26.290Z,28.44
2018-02-08T18:51:26.290Z,28.54
2018-02-08T18:52:26.285Z,28.44
2018-02-08T18:53:26.294Z,28.44
2018-02-08T18:54:26.278Z,28.44
2018-02-08T18:55:26.264Z,28.52
2018-02-08T18:56:26.255Z,28.34
2018-02-08T18:57:26.251Z,28.34
2018-02-08T18:58:26.245Z,28.44
2018-02-08T18:59:26.236Z,28.25
2018-02-08T19:00:26.282Z,28.15
2018-02-08T19:01:26.225Z,28.15
2018-02-08T19:02:26.222Z,28.15
2018-02-08T19:03:26.464Z,28.25
2018-02-08T19:04:26.213Z,28.43
2018-02-08T19:05:26.209Z,28.25
2018-02-08T19:06:26.245Z,28.15
2018-02-08T19:07:26.192Z,28.33
2018-02-08T19:08:26.439Z,28.25
2018-02-08T19:09:26.177Z,28.04
2018-02-08T19:10:26.170Z,28.25
2018-02-08T19:11:26.165Z,28.04
2018-02-08T19:12:26.158Z,28.33
2018-02-08T19:13:26.450Z,28.14
2018-02-08T19:14:26.145Z,27.96
2018-02-08T19:15:26.140Z,27.94
2018-02-08T19:16:26.129Z,28.05
2018-02-08T19:17:26.130Z,28.15
2018-02-08T19:18:26.375Z,28.04
2018-02-08T19:19:26.115Z,28.04
2018-02-08T19:20:26.108Z,28.05
2018-02-08T19:21:26.124Z,27.94
2018-02-08T19:22:26.097Z,27.75
2018-02-08T19:23:26.339Z,27.94
2018-02-08T19:24:26.085Z,27.94
2018-02-08T19:25:26.078Z,27.94
2018-02-08T19:26:26.076Z,28.04
2018-02-08T19:27:26.076Z,27.66
2018-02-08T19:28:26.310Z,28.04
2018-02-08T19:29:26.055Z,27.66
2018-02-08T19:30:26.058Z,27.46
2018-02-08T19:31:26.045Z,27.94
2018-02-08T19:32:26.037Z,27.66
2018-02-08T19:33:26.032Z,27.94
2018-02-08T19:34:26.033Z,27.94
2018-02-08T19:35:26.024Z,28.14
2018-02-08T19:36:26.073Z,27.75
2018-02-08T19:37:26.009Z,28.04
2018-02-08T19:38:26.254Z,28.04
2018-02-08T19:39:25.994Z,27.94
2018-02-08T19:40:26.040Z,28.04
2018-02-08T19:41:25.985Z,28.04
2018-02-08T19:42:25.980Z,28.04
2018-02-08T19:43:26.226Z,28.04
2018-02-08T19:44:25.968Z,27.75
2018-02-08T19:45:25.963Z,27.94
2018-02-08T19:46:26.002Z,27.17
2018-02-08T19:47:26.028Z,26.40
2018-02-08T19:48:26.192Z,26.20
2018-02-08T19:49:25.940Z,26.20
2018-02-08T19:50:25.932Z,26.50
2018-02-08T19:51:25.924Z,26.30
2018-02-08T19:52:25.916Z,26.30
2018-02-08T19:53:26.156Z,26.40
2018-02-08T19:54:25.899Z,26.40
2018-02-08T19:55:25.894Z,26.68
2018-02-08T19:56:25.892Z,26.88
2018-02-08T19:57:25.884Z,26.59
2018-02-08T19:58:26.144Z,26.50
2018-02-08T19:59:25.867Z,26.40
2018-02-08T20:00:25.866Z,26.68
2018-02-08T20:01:25.858Z,27.17
2018-02-08T20:02:25.857Z,27.36
2018-02-08T20:03:26.094Z,26.59
2018-02-08T20:04:25.844Z,26.98
2018-02-08T20:05:25.837Z,26.88
2018-02-08T20:06:25.825Z,27.17
2018-02-08T20:07:25.820Z,27.17
2018-02-08T20:08:26.064Z,27.56
2018-02-08T20:09:25.813Z,27.46
2018-02-08T20:10:25.802Z,27.56
2018-02-08T20:11:25.801Z,27.36
2018-02-08T20:12:25.793Z,27.26
2018-02-08T20:13:27.236Z,27.36
2018-02-08T20:14:25.790Z,27.66
2018-02-08T20:15:25.784Z,27.66
2018-02-08T20:16:25.767Z,27.46
2018-02-08T20:17:25.773Z,27.56
2018-02-08T20:18:25.757Z,27.26
2018-02-08T20:19:25.843Z,27.36
2018-02-08T20:20:25.739Z,27.56
2018-02-08T20:21:25.736Z,27.85
2018-02-08T20:22:25.738Z,27.75
2018-02-08T20:23:25.826Z,27.66
2018-02-08T20:24:25.982Z,27.66
2018-02-08T20:25:25.789Z,27.56
2018-02-08T20:26:25.709Z,27.56
2018-02-08T20:27:25.802Z,27.26
2018-02-08T20:28:25.690Z,27.36
2018-02-08T20:29:25.787Z,27.26
2018-02-08T20:30:25.679Z,27.75
2018-02-08T20:31:25.675Z,27.56
2018-02-08T20:32:25.673Z,27.94
2018-02-08T20:33:25.664Z,27.75
2018-02-08T20:34:25.652Z,27.56
2018-02-08T20:35:25.701Z,27.66
2018-02-08T20:36:25.645Z,27.85
2018-02-08T20:37:25.645Z,28.04
2018-02-08T20:38:25.631Z,27.75
2018-02-08T20:39:25.624Z,27.94
2018-02-08T20:40:25.876Z,27.85
2018-02-08T20:41:25.617Z,27.75
2018-02-08T20:42:25.612Z,27.85
2018-02-08T20:43:25.594Z,27.85
2018-02-08T20:44:25.591Z,28.04
2018-02-08T20:45:25.584Z,28.04
2018-02-08T20:46:25.582Z,28.14
2018-02-08T20:47:25.582Z,28.04
2018-02-08T20:48:25.570Z,28.14
2018-02-08T20:49:25.557Z,28.33
2018-02-08T20:50:25.562Z,28.23
2018-02-08T20:51:25.547Z,28.14
2018-02-08T20:52:25.546Z,28.14
2018-02-08T20:53:25.537Z,28.14
2018-02-08T20:54:25.538Z,28.04
2018-02-08T20:55:25.526Z,28.33
2018-02-08T20:56:25.784Z,28.43
2018-02-08T20:57:25.865Z,28.33
2018-02-08T20:58:25.506Z,28.51
2018-02-08T20:59:25.502Z,28.41
2018-02-08T21:00:25.594Z,28.99
2018-02-08T21:01:25.737Z,28.78
2018-02-08T21:02:25.601Z,29.08
2018-02-08T21:03:25.470Z,29.08
2018-02-08T21:04:25.726Z,29.27
2018-02-08T21:05:25.461Z,29.56
2018-02-08T21:06:25.703Z,29.56
2018-02-08T21:07:25.446Z,29.27
2018-02-08T21:08:25.492Z,29.46
2018-02-08T21:09:25.429Z,29.75
2018-02-08T21:10:25.426Z,29.85
2018-02-08T21:11:25.665Z,29.94
2018-02-08T21:12:25.412Z,29.75
2018-02-08T21:13:25.403Z,29.75
2018-02-08T21:14:25.447Z,29.66
2018-02-08T21:15:25.393Z,29.83
2018-02-08T21:16:25.635Z,29.74
2018-02-08T21:17:25.384Z,30.22
2018-02-08T21:18:25.365Z,30.22
2018-02-08T21:19:25.361Z,30.03
2018-02-08T21:20:25.352Z,30.03
2018-02-08T21:21:25.355Z,30.03
2018-02-08T21:22:25.344Z,30.03
2018-02-08T21:23:25.334Z,29.93
2018-02-08T21:24:25.333Z,30.12
2018-02-08T21:25:25.321Z,30.32
2018-02-08T21:26:25.561Z,30.12
2018-02-08T21:27:25.304Z,30.12
2018-02-08T21:28:25.307Z,30.22
2018-02-08T21:29:25.301Z,30.12
2018-02-08T21:30:25.285Z,30.41
2018-02-08T21:31:25.574Z,30.22
2018-02-08T21:32:25.266Z,30.32
2018-02-08T21:33:25.261Z,30.80
2018-02-08T21:34:25.254Z,30.51
2018-02-08T21:35:25.244Z,30.32
2018-02-08T21:36:25.238Z,30.51
2018-02-08T21:37:25.232Z,30.61
2018-02-08T21:38:25.224Z,30.70
2018-02-08T21:39:25.346Z,30.80
2018-02-08T21:40:25.211Z,30.51
2018-02-08T21:41:25.256Z,30.41
2018-02-08T21:42:25.199Z,30.41
2018-02-08T21:43:25.191Z,30.41
2018-02-08T21:44:25.176Z,30.51
2018-02-08T21:45:25.175Z,30.61
2018-02-08T21:46:25.416Z,30.51
2018-02-08T21:47:25.204Z,30.51
2018-02-08T21:48:25.150Z,30.51
2018-02-08T21:49:25.141Z,30.51
2018-02-08T21:50:25.134Z,30.70
2018-02-08T21:51:25.384Z,30.61
2018-02-08T21:52:25.117Z,30.61
2018-02-08T21:53:25.263Z,30.70
2018-02-08T21:54:25.106Z,30.61
2018-02-08T21:55:25.097Z,30.90
2018-02-08T21:56:25.091Z,30.90
2018-02-08T21:57:25.085Z,30.61
2018-02-08T21:58:25.087Z,30.99
2018-02-08T21:59:25.071Z,30.80
2018-02-08T22:00:25.068Z,30.70
2018-02-08T22:01:25.055Z,30.80
2018-02-08T22:02:25.057Z,30.90
2018-02-08T22:03:25.043Z,30.90
2018-02-08T22:04:25.042Z,30.99
2018-02-08T22:05:25.034Z,31.09
2018-02-08T22:06:25.322Z,30.99
2018-02-08T22:07:25.008Z,31.28
2018-02-08T22:08:25.001Z,31.09
2018-02-08T22:09:25.003Z,31.09
2018-02-08T22:10:24.986Z,31.37
2018-02-08T22:11:24.986Z,31.27
2018-02-08T22:12:24.986Z,31.27
2018-02-08T22:13:24.965Z,31.27
2018-02-08T22:14:24.977Z,31.17
2018-02-08T22:15:24.949Z,31.28
2018-02-08T22:16:25.192Z,31.28
2018-02-08T22:17:24.933Z,31.57
2018-02-08T22:18:24.927Z,31.46
2018-02-08T22:19:24.917Z,31.56
2018-02-08T22:20:24.916Z,31.57
2018-02-08T22:21:25.157Z,31.46
2018-02-08T22:22:24.920Z,31.57
2018-02-08T22:23:24.887Z,31.48
2018-02-08T22:24:24.881Z,31.46
2018-02-08T22:25:24.875Z,31.56
2018-02-08T22:26:24.875Z,31.65
2018-02-08T22:27:24.858Z,31.37
2018-02-08T22:28:24.848Z,31.56
2018-02-08T22:29:24.846Z,31.56
2018-02-08T22:30:24.835Z,31.56
2018-02-08T22:31:24.828Z,31.56
2018-02-08T22:32:24.821Z,31.46
2018-02-08T22:33:24.823Z,31.37
2018-02-08T22:34:24.805Z,31.56
2018-02-08T22:35:24.800Z,31.56
2018-02-08T22:36:25.046Z,31.56
2018-02-08T22:37:24.784Z,31.37
2018-02-08T22:38:24.777Z,31.65
2018-02-08T22:39:24.811Z,31.37
2018-02-08T22:40:24.766Z,30.79
2018-02-08T22:41:24.755Z,30.40
2018-02-08T22:42:24.750Z,29.91
2018-02-08T22:43:24.747Z,29.43
2018-02-08T22:44:24.734Z,29.72
2018-02-08T22:45:24.725Z,29.34
2018-02-08T22:46:24.723Z,29.14
2018-02-08T22:47:24.714Z,29.05
2018-02-08T22:48:24.717Z,29.14
2018-02-08T22:49:24.696Z,29.24
2018-02-08T22:50:24.693Z,29.24
2018-02-08T22:51:24.685Z,29.43
2018-02-08T22:52:24.679Z,29.72
2018-02-08T22:53:24.666Z,29.34
2018-02-08T22:54:24.663Z,29.14
2018-02-08T22:55:24.650Z,29.82
2018-02-08T22:56:24.647Z,29.63
2018-02-08T22:57:24.638Z,29.53
2018-02-08T22:58:24.628Z,29.91
2018-02-08T22:59:24.619Z,30.21
2018-02-08T23:00:24.613Z,30.11
2018-02-08T23:01:24.612Z,29.91
2018-02-08T23:02:24.862Z,30.21
2018-02-08T23:03:24.590Z,30.11
2018-02-08T23:04:24.586Z,30.30
2018-02-08T23:05:24.576Z,30.30
2018-02-08T23:06:24.569Z,30.79
2018-02-08T23:07:24.558Z,30.59
2018-02-08T23:08:24.561Z,30.49
2018-02-08T23:09:24.545Z,30.59
2018-02-08T23:10:24.538Z,30.59
2018-02-08T23:11:24.537Z,30.49
2018-02-08T23:12:24.523Z,30.59
2018-02-08T23:13:24.784Z,30.79
2018-02-08T23:14:24.513Z,30.59
2018-02-08T23:15:24.498Z,30.69
2018-02-08T23:16:24.491Z,30.88
2018-02-08T23:17:24.486Z,30.88
2018-02-08T23:18:24.737Z,30.69
2018-02-08T23:19:24.482Z,30.88
2018-02-08T23:20:24.464Z,30.88
2018-02-08T23:21:24.459Z,30.88
2018-02-08T23:22:24.451Z,30.98
2018-02-08T23:23:24.440Z,30.88
2018-02-08T23:24:24.437Z,30.98
2018-02-08T23:25:24.427Z,30.98
2018-02-08T23:26:24.421Z,31.17
2018-02-08T23:27:24.412Z,31.17
2018-02-08T23:28:24.655Z,30.98
2018-02-08T23:29:24.403Z,31.07
2018-02-08T23:30:24.391Z,31.17
2018-02-08T23:31:24.384Z,31.27
2018-02-08T23:32:24.379Z,31.17
2018-02-08T23:33:24.374Z,31.27
2018-02-08T23:34:24.365Z,31.17
2018-02-08T23:35:24.352Z,31.45
2018-02-08T23:36:24.348Z,31.37
2018-02-08T23:37:24.336Z,31.17
2018-02-08T23:38:24.582Z,31.27
2018-02-08T23:39:24.326Z,31.25
2018-02-08T23:40:24.317Z,31.15
2018-02-08T23:41:24.311Z,31.25
2018-02-08T23:42:24.301Z,31.27
2018-02-08T23:43:24.542Z,31.37
2018-02-08T23:44:24.286Z,31.46
2018-02-08T23:45:24.285Z,31.54
2018-02-08T23:46:24.271Z,31.27
2018-02-08T23:47:24.265Z,31.45
2018-02-08T23:48:24.506Z,31.65
2018-02-08T23:49:24.253Z,31.45
2018-02-08T23:50:24.256Z,31.45
2018-02-08T23:51:24.236Z,31.56
2018-02-08T23:52:24.236Z,31.35
2018-02-08T23:53:24.224Z,31.37
2018-02-08T23:54:24.223Z,31.45
2018-02-08T23:55:24.206Z,31.46
2018-02-08T23:56:24.195Z,31.54
2018-02-08T23:57:24.196Z,31.63
2018-02-08T23:58:24.432Z,31.54
2018-02-08T23:59:24.176Z,31.45
